Time;durP1;ratioP1;P1;durP2;ratioP2;P2;SDS_P1;SDS_P2;PMS_P1;PMS_P2;Temp;Humidity;BMP_temperature;BMP_pressure;BME280_temperature;BME280_humidity;BME280_pressure;Samples;Min_cycle;Max_cycle;Signal;HPM_P1;HPM_P2
2023/01/25 00:00:19;;;;;;;20.58;12.73;;;;;;;2.31;83.75;103191.75;6091602;23;20018;-68
2023/01/25 00:02:44;;;;;;;23.35;13.00;;;;;;;2.32;83.01;103188.41;6092837;23;20089;-68
2023/01/25 00:05:09;;;;;;;22.05;14.18;;;;;;;2.36;83.41;103192.06;6091122;23;20090;-68
2023/01/25 00:07:35;;;;;;;23.52;13.90;;;;;;;2.40;83.47;103182.13;6092808;23;20018;-68
2023/01/25 00:10:00;;;;;;;22.88;14.20;;;;;;;2.42;83.42;103183.13;6093191;23;20006;-68
2023/01/25 00:12:26;;;;;;;23.48;14.20;;;;;;;2.46;83.35;103180.75;6093404;23;20101;-68
2023/01/25 00:14:51;;;;;;;23.85;14.00;;;;;;;2.44;83.47;103180.66;6091119;23;20022;-68
2023/01/25 00:17:16;;;;;;;23.30;14.15;;;;;;;2.39;83.42;103174.38;6092396;23;20358;-68
2023/01/25 00:19:42;;;;;;;21.67;12.77;;;;;;;2.36;83.65;103180.19;6090488;23;20473;-68
2023/01/25 00:22:07;;;;;;;24.35;14.05;;;;;;;2.33;83.96;103177.44;6092217;23;20434;-68
2023/01/25 00:24:33;;;;;;;23.45;14.10;;;;;;;2.28;84.32;103178.78;6092326;23;19998;-68
2023/01/25 00:26:58;;;;;;;24.13;14.25;;;;;;;2.30;84.25;103179.78;6091327;23;20093;-68
2023/01/25 00:29:24;;;;;;;23.20;13.85;;;;;;;2.25;84.17;103177.75;6090596;23;20023;-68
2023/01/25 00:31:55;;;;;;;22.35;13.40;;;;;;;2.23;84.67;103176.72;6092154;23;20010;-68
2023/01/25 00:34:23;;;;;;;23.55;13.85;;;;;;;2.23;84.45;103169.06;6092047;23;20017;-68
2023/01/25 00:37:24;;;;;;;26.10;14.65;;;;;;;2.24;84.62;103174.28;6091942;23;20016;-68
2023/01/25 00:39:50;;;;;;;23.02;12.85;;;;;;;2.22;84.91;103157.97;6087391;23;20025;-68
2023/01/25 00:42:18;;;;;;;22.20;12.93;;;;;;;2.19;84.18;103164.59;6094112;23;20023;-68
2023/01/25 00:44:44;;;;;;;25.48;14.63;;;;;;;2.16;84.65;103160.16;6089791;23;20025;-68
2023/01/25 00:47:10;;;;;;;25.92;15.23;;;;;;;2.15;85.02;103155.84;6091071;23;20018;-67
2023/01/25 00:49:37;;;;;;;25.27;14.05;;;;;;;2.16;85.28;103154.19;6090731;23;20014;-68
2023/01/25 00:52:02;;;;;;;23.02;13.35;;;;;;;2.13;85.73;103162.50;6090652;23;20014;-68
2023/01/25 00:54:28;;;;;;;24.45;14.48;;;;;;;2.14;85.52;103153.19;6091261;23;20022;-68
2023/01/25 00:56:55;;;;;;;25.67;14.52;;;;;;;2.13;85.72;103156.53;6090704;23;20026;-68
2023/01/25 00:59:22;;;;;;;21.58;12.98;;;;;;;2.12;85.56;103155.66;6090997;23;20021;-68
2023/01/25 01:01:48;;;;;;;22.52;13.57;;;;;;;2.13;85.20;103148.91;6090411;23;20393;-68
2023/01/25 01:04:13;;;;;;;21.95;13.55;;;;;;;2.13;85.28;103151.44;6090782;23;20057;-68
2023/01/25 01:06:39;;;;;;;23.00;13.65;;;;;;;2.12;85.17;103153.09;6092213;23;20054;-68
2023/01/25 01:09:07;;;;;;;26.58;15.40;;;;;;;2.14;85.54;103140.44;6091717;23;20454;-68
2023/01/25 01:11:32;;;;;;;27.10;14.93;;;;;;;2.12;85.97;103144.56;6092043;23;20026;-68
2023/01/25 01:13:58;;;;;;;28.00;14.95;;;;;;;2.14;85.67;103143.88;6089391;23;20346;-68
2023/01/25 01:16:25;;;;;;;26.00;14.77;;;;;;;2.15;85.97;103142.22;6090197;23;20434;-68
2023/01/25 01:18:51;;;;;;;24.02;13.02;;;;;;;2.11;85.62;103142.78;6091004;23;19998;-68
2023/01/25 01:21:16;;;;;;;22.75;14.02;;;;;;;2.07;85.56;103141.75;6090447;23;20027;-68
2023/01/25 01:23:43;;;;;;;23.40;13.55;;;;;;;2.07;86.23;103135.75;6089352;23;20018;-68
2023/01/25 01:26:11;;;;;;;25.75;14.05;;;;;;;2.04;85.87;103133.00;6089651;23;20018;-68
2023/01/25 01:28:40;;;;;;;27.42;15.32;;;;;;;2.04;86.01;103143.19;6090118;23;20034;-68
2023/01/25 01:31:17;;;;;;;26.20;15.10;;;;;;;2.03;86.04;103141.44;6090055;23;20006;-68
2023/01/25 01:33:43;;;;;;;26.75;15.05;;;;;;;2.04;86.15;103138.09;6092977;23;20030;-67
2023/01/25 01:36:09;;;;;;;26.85;14.70;;;;;;;2.01;86.08;103145.56;6091454;23;20504;-68
2023/01/25 01:38:35;;;;;;;24.02;15.35;;;;;;;2.01;86.47;103140.47;6090949;23;20474;-68
2023/01/25 01:41:00;;;;;;;25.05;14.50;;;;;;;2.03;86.20;103142.31;6091821;23;20033;-68
2023/01/25 01:43:26;;;;;;;24.02;14.80;;;;;;;2.04;86.13;103143.19;6091058;23;20018;-68
2023/01/25 01:45:56;;;;;;;26.70;13.75;;;;;;;2.00;86.34;103142.13;6090135;23;20100;-68
2023/01/25 01:48:48;;;;;;;27.17;14.90;;;;;;;2.03;86.54;103144.88;6090221;23;20018;-68
2023/01/25 01:51:42;;;;;;;26.20;15.07;;;;;;;2.04;86.26;103140.66;6091047;23;20022;-68
2023/01/25 01:54:33;;;;;;;26.63;15.63;;;;;;;2.05;86.08;103139.84;6090082;23;20026;-68
2023/01/25 01:57:19;;;;;;;28.17;16.02;;;;;;;2.06;86.59;103139.06;6090555;23;20086;-68
2023/01/25 02:00:09;;;;;;;26.13;15.50;;;;;;;2.09;86.62;103144.38;6089173;23;20467;-68
2023/01/25 02:02:34;;;;;;;25.70;14.80;;;;;;;2.08;86.07;103140.94;6088487;23;20113;-70
2023/01/25 02:05:05;;;;;;;26.75;14.80;;;;;;;2.08;86.06;103134.94;6090287;23;20470;-68
2023/01/25 02:07:33;;;;;;;26.58;15.77;;;;;;;2.03;86.08;103129.56;6090266;23;20041;-68
2023/01/25 02:10:00;;;;;;;22.65;13.90;;;;;;;2.03;86.54;103131.22;6090772;23;20021;-68
2023/01/25 02:12:26;;;;;;;28.90;14.85;;;;;;;2.04;86.56;103122.78;6091476;23;20022;-68
2023/01/25 02:14:53;;;;;;;28.10;15.35;;;;;;;2.03;86.17;103119.34;6087388;23;20458;-68
2023/01/25 02:17:25;;;;;;;26.20;14.88;;;;;;;2.05;86.59;103134.75;6089320;23;20046;-68
2023/01/25 02:19:56;;;;;;;28.75;15.85;;;;;;;2.03;86.52;103137.22;6089448;23;20011;-68
2023/01/25 02:22:30;;;;;;;28.88;16.52;;;;;;;2.04;86.58;103135.56;6089829;23;20544;-68
2023/01/25 02:25:15;;;;;;;26.58;15.38;;;;;;;2.04;86.52;103133.88;6090062;23;20141;-68
2023/01/25 02:27:46;;;;;;;26.48;14.70;;;;;;;2.03;86.88;103128.66;6090897;23;20053;-68
2023/01/25 02:30:11;;;;;;;27.40;17.13;;;;;;;2.04;87.02;103130.44;6089496;23;20033;-68
2023/01/25 02:32:37;;;;;;;27.02;15.98;;;;;;;2.04;86.67;103131.34;6088387;23;20026;-68
2023/01/25 02:35:04;;;;;;;28.40;14.93;;;;;;;2.07;86.85;103123.88;6090177;23;20022;-68
2023/01/25 02:37:29;;;;;;;28.08;15.52;;;;;;;2.03;86.38;103121.91;6090519;23;20102;-68
2023/01/25 02:39:54;;;;;;;27.67;15.55;;;;;;;2.03;86.55;103121.91;6090737;23;20045;-68
2023/01/25 02:42:20;;;;;;;24.73;14.30;;;;;;;2.03;86.43;103121.91;6089399;23;20026;-68
2023/01/25 02:44:46;;;;;;;24.58;14.30;;;;;;;2.00;86.67;103124.25;6090714;23;20029;-69
2023/01/25 02:47:12;;;;;;;26.48;14.70;;;;;;;2.02;86.89;103117.59;6090549;23;20078;-68
2023/01/25 02:49:37;;;;;;;27.27;15.27;;;;;;;1.99;87.09;103112.28;6090304;23;20014;-68
2023/01/25 02:52:04;;;;;;;24.65;14.82;;;;;;;1.97;86.86;103111.31;6091224;23;20011;-68
2023/01/25 02:54:29;;;;;;;28.17;14.82;;;;;;;1.99;87.38;103119.03;6089141;23;20102;-68
2023/01/25 02:56:55;;;;;;;28.92;16.00;;;;;;;2.02;87.40;103126.91;6089620;23;20050;-68
2023/01/25 02:59:21;;;;;;;25.27;15.20;;;;;;;2.02;87.00;103115.03;6090266;23;20074;-68
2023/01/25 03:01:47;;;;;;;26.25;14.90;;;;;;;2.04;86.48;103113.47;6093775;23;20018;-68
2023/01/25 03:04:12;;;;;;;28.75;16.25;;;;;;;2.07;86.71;103107.69;6094517;23;20002;-68
2023/01/25 03:06:39;;;;;;;22.65;14.27;;;;;;;2.09;86.33;103106.09;6095851;23;20013;-68
2023/01/25 03:09:06;;;;;;;26.98;15.70;;;;;;;2.10;86.17;103111.28;6093645;23;20441;-68
2023/01/25 03:11:32;;;;;;;25.15;14.93;;;;;;;2.11;85.73;103109.63;6093304;23;20038;-68
2023/01/25 03:13:58;;;;;;;23.30;13.23;;;;;;;2.14;86.12;103114.91;6092090;23;20025;-68
2023/01/25 03:16:23;;;;;;;25.85;14.77;;;;;;;2.14;85.71;103113.25;6090969;23;20101;-68
2023/01/25 03:18:53;;;;;;;21.60;13.73;;;;;;;2.14;85.71;103109.81;6091692;23;20441;-68
2023/01/25 03:21:19;;;;;;;22.63;13.57;;;;;;;2.16;85.82;103108.28;6091442;23;20018;-68
2023/01/25 03:23:46;;;;;;;27.15;14.75;;;;;;;2.13;86.25;103105.53;6091172;23;20022;-68
2023/01/25 03:26:14;;;;;;;22.95;13.35;;;;;;;2.12;85.56;103103.75;6090216;23;20462;-68
2023/01/25 03:28:41;;;;;;;23.85;14.00;;;;;;;2.11;85.80;103107.97;6091398;23;20516;-68
2023/01/25 03:31:08;;;;;;;22.48;14.75;;;;;;;2.12;85.90;103108.84;6090985;23;20013;-68
2023/01/25 03:33:34;;;;;;;22.83;13.77;;;;;;;2.11;85.84;103104.53;6092429;23;20022;-68
2023/01/25 03:36:00;;;;;;;22.52;12.60;;;;;;;2.05;85.55;103099.91;6091262;23;20034;-68
2023/01/25 03:38:26;;;;;;;20.60;12.35;;;;;;;2.02;85.76;103106.50;6091281;23;20018;-68
2023/01/25 03:40:51;;;;;;;20.23;13.20;;;;;;;1.97;85.58;103107.88;6091866;23;20014;-68
2023/01/25 03:43:17;;;;;;;22.23;14.00;;;;;;;1.93;86.02;103101.69;6092752;23;20016;-68
2023/01/25 03:45:43;;;;;;;24.27;14.15;;;;;;;1.93;86.23;103099.16;6090810;23;20050;-68
2023/01/25 03:48:08;;;;;;;24.58;13.50;;;;;;;1.92;85.90;103097.41;6090747;23;20026;-68
2023/01/25 03:50:34;;;;;;;23.92;13.48;;;;;;;1.90;86.28;103100.59;6092165;23;20097;-68
2023/01/25 03:53:08;;;;;;;19.73;11.85;;;;;;;1.90;86.53;103100.59;6089708;23;20525;-69
2023/01/25 03:55:34;;;;;;;22.05;13.30;;;;;;;1.86;86.02;103100.41;6091188;23;20350;-68
2023/01/25 03:57:59;;;;;;;24.88;14.85;;;;;;;1.86;86.35;103102.09;6091815;23;20015;-71
2023/01/25 04:00:25;;;;;;;25.30;14.10;;;;;;;1.84;86.59;103101.09;6092362;23;20093;-68
2023/01/25 04:02:50;;;;;;;24.73;13.40;;;;;;;1.82;86.62;103093.38;6090927;23;20068;-68
2023/01/25 04:05:16;;;;;;;23.90;14.02;;;;;;;1.82;87.29;103095.94;6091096;23;20094;-68
2023/01/25 04:07:41;;;;;;;22.45;13.13;;;;;;;1.77;86.88;103099.84;6091677;23;20599;-68
2023/01/25 04:10:08;;;;;;;23.80;12.43;;;;;;;1.78;86.81;103093.94;6093407;23;20081;-68
2023/01/25 04:12:33;;;;;;;22.92;14.07;;;;;;;1.75;87.43;103085.22;6092671;23;20069;-68
2023/01/25 04:14:58;;;;;;;25.05;15.23;;;;;;;1.75;86.88;103086.09;6090794;23;20027;-68
2023/01/25 04:17:24;;;;;;;27.17;14.48;;;;;;;1.79;87.45;103077.88;6090591;23;20026;-68
2023/01/25 04:19:49;;;;;;;27.17;14.32;;;;;;;1.83;87.44;103079.81;6090436;23;20025;-68
2023/01/25 04:22:15;;;;;;;23.88;13.35;;;;;;;1.88;86.86;103064.81;6091088;23;20011;-68
2023/01/25 04:24:41;;;;;;;24.35;13.25;;;;;;;1.92;87.27;103063.38;6091392;23;20026;-68
2023/01/25 04:27:07;;;;;;;23.65;14.40;;;;;;;1.93;86.67;103062.56;6091262;23;20360;-67
2023/01/25 04:29:33;;;;;;;27.25;14.63;;;;;;;1.94;86.76;103054.13;6090869;23;20022;-67
2023/01/25 04:31:59;;;;;;;24.33;13.73;;;;;;;1.93;86.67;103060.00;6090953;23;20761;-67
2023/01/25 04:34:25;;;;;;;25.65;13.77;;;;;;;1.94;86.96;103052.47;6091451;23;20030;-67
2023/01/25 04:36:50;;;;;;;22.80;13.23;;;;;;;1.91;86.58;103052.28;6090464;23;20010;-68
2023/01/25 04:39:16;;;;;;;24.75;14.27;;;;;;;1.86;86.82;103051.97;6090828;23;20028;-67
2023/01/25 04:41:41;;;;;;;24.13;14.23;;;;;;;1.81;87.14;103055.00;6091486;23;20014;-68
2023/01/25 04:44:06;;;;;;;24.27;15.00;;;;;;;1.78;87.20;103045.50;6090383;23;20042;-68
2023/01/25 04:46:32;;;;;;;22.13;13.30;;;;;;;1.78;86.98;103040.41;6091122;23;20572;-68
2023/01/25 04:48:57;;;;;;;24.27;14.02;;;;;;;1.74;87.26;103040.13;6090961;23;20017;-68
2023/01/25 04:51:23;;;;;;;21.27;13.35;;;;;;;1.74;87.23;103047.78;6091035;23;20019;-68
2023/01/25 04:53:48;;;;;;;24.15;14.88;;;;;;;1.73;87.22;103036.69;6090921;23;20485;-67
2023/01/25 04:56:13;;;;;;;24.42;14.95;;;;;;;1.74;87.12;103037.59;6089953;23;20022;-68
2023/01/25 04:58:39;;;;;;;26.58;15.40;;;;;;;1.74;87.90;103040.13;6091630;23;20394;-68
2023/01/25 05:01:04;;;;;;;25.17;15.15;;;;;;;1.77;87.79;103038.66;6090825;23;20010;-68
2023/01/25 05:03:30;;;;;;;23.25;13.98;;;;;;;1.80;87.85;103035.44;6092465;23;20458;-68
2023/01/25 05:05:55;;;;;;;28.02;15.73;;;;;;;1.76;87.83;103029.25;6092065;23;20089;-68
2023/01/25 05:08:21;;;;;;;25.10;14.80;;;;;;;1.76;87.52;103025.81;6089848;23;20014;-68
2023/01/25 05:10:46;;;;;;;23.38;14.00;;;;;;;1.74;87.76;103030.81;6092150;23;20018;-68
2023/01/25 05:13:11;;;;;;;26.35;15.55;;;;;;;1.73;87.75;103033.25;6091960;23;20584;-68
2023/01/25 05:15:37;;;;;;;28.30;15.27;;;;;;;1.74;87.63;103040.13;6090430;23;20097;-68
2023/01/25 05:18:03;;;;;;;23.73;14.13;;;;;;;1.73;88.05;103039.25;6090787;23;20105;-68
2023/01/25 05:20:28;;;;;;;26.92;15.68;;;;;;;1.74;87.60;103030.81;6091181;23;20029;-68
2023/01/25 05:22:54;;;;;;;25.45;14.40;;;;;;;1.73;87.93;103026.50;6092761;23;20483;-68
2023/01/25 05:28:06;;;;;;;23.70;14.30;;;;;;;1.75;87.97;103026.59;6090543;23;20085;-68
2023/01/25 05:30:32;;;;;;;25.35;14.80;;;;;;;1.74;87.80;103024.84;6092184;23;20012;-68
2023/01/25 05:32:58;;;;;;;23.30;13.68;;;;;;;1.68;87.78;103017.69;6090915;23;20674;-68
2023/01/25 05:35:23;;;;;;;26.10;15.27;;;;;;;1.67;88.13;103025.22;6090417;23;20018;-68
2023/01/25 05:37:49;;;;;;;27.58;15.13;;;;;;;1.68;87.95;103024.44;6090223;23;20551;-68
2023/01/25 05:40:14;;;;;;;26.15;14.63;;;;;;;1.65;88.17;103017.50;6089616;23;20022;-68
2023/01/25 05:42:40;;;;;;;24.70;14.25;;;;;;;1.65;88.20;103017.50;6092738;23;20342;-68
2023/01/25 05:45:07;;;;;;;26.85;14.82;;;;;;;1.67;88.42;103025.22;6092039;23;20069;-68
2023/01/25 05:47:32;;;;;;;26.42;14.40;;;;;;;1.67;87.90;103008.28;6090155;23;20014;-68
2023/01/25 05:49:58;;;;;;;24.13;14.35;;;;;;;1.66;88.44;103014.13;6091230;23;20011;-68
2023/01/25 05:52:23;;;;;;;21.35;13.70;;;;;;;1.67;nan;103007.38;6090328;23;20466;-68
2023/01/25 05:54:49;;;;;;;26.05;15.02;;;;;;;1.70;87.65;103005.03;6089056;23;20006;-68
2023/01/25 05:57:15;;;;;;;23.08;14.05;;;;;;;1.72;87.87;103008.53;6089927;23;20033;-68
2023/01/25 05:59:40;;;;;;;24.38;14.52;;;;;;;1.76;87.84;103002.88;6089371;23;20022;-68
2023/01/25 06:02:06;;;;;;;26.83;13.80;;;;;;;1.74;87.93;103014.66;6089364;23;20489;-68
2023/01/25 06:04:31;;;;;;;29.52;14.80;;;;;;;1.72;88.19;103014.53;6090468;23;20462;-67
2023/01/25 06:06:57;;;;;;;28.77;15.82;;;;;;;1.69;88.11;103006.69;6091668;23;20057;-68
2023/01/25 06:09:22;;;;;;;30.10;16.33;;;;;;;1.72;88.31;103008.53;6089627;23;20529;-68
2023/01/25 06:11:48;;;;;;;31.92;16.70;;;;;;;1.73;88.20;103003.56;6088508;23;20022;-68
2023/01/25 06:14:14;;;;;;;27.48;15.80;;;;;;;1.73;88.34;103010.31;6088948;23;20476;-69
2023/01/25 06:16:39;;;;;;;28.48;15.65;;;;;;;1.75;88.44;103006.19;6088480;23;20670;-68
2023/01/25 06:19:06;;;;;;;32.35;18.75;;;;;;;1.74;88.03;102999.34;6088955;23;20081;-68
2023/01/25 06:21:34;;;;;;;30.52;15.90;;;;;;;1.78;88.17;103006.38;6089055;23;20065;-67
2023/01/25 06:23:59;;;;;;;25.13;15.27;;;;;;;1.77;88.23;102994.44;6090863;23;20037;-68
2023/01/25 06:26:24;;;;;;;27.92;15.82;;;;;;;1.75;87.79;102998.53;6091777;23;20443;-68
2023/01/25 06:28:50;;;;;;;31.23;15.30;;;;;;;1.75;88.21;102998.53;6092414;23;20010;-67
2023/01/25 06:31:16;;;;;;;26.42;14.88;;;;;;;1.76;88.15;102988.44;6092794;23;20037;-68
2023/01/25 06:33:46;;;;;;;25.48;15.23;;;;;;;1.79;87.97;102990.31;6091333;23;20485;-72
2023/01/25 06:36:14;;;;;;;28.17;15.52;;;;;;;1.80;88.30;102987.88;6093938;23;20146;-74
2023/01/25 06:38:40;;;;;;;27.35;15.07;;;;;;;1.82;87.88;102986.28;6092095;23;20023;-73
2023/01/25 06:41:09;;;;;;;29.80;16.77;;;;;;;1.81;88.42;102984.50;6093768;23;20026;-73
2023/01/25 06:43:35;;;;;;;27.92;17.00;;;;;;;1.76;88.46;102990.13;6095412;23;20417;-72
2023/01/25 06:46:03;;;;;;;29.92;16.98;;;;;;;1.78;88.72;102985.97;6095315;23;20014;-72
2023/01/25 06:48:29;;;;;;;28.48;16.55;;;;;;;1.80;88.50;102987.88;6099201;23;20025;-72
2023/01/25 06:51:00;;;;;;;27.83;16.67;;;;;;;1.79;88.40;102983.53;6103656;23;20308;-72
2023/01/25 06:53:28;;;;;;;28.52;17.05;;;;;;;1.80;88.36;102985.31;6105835;23;20025;-72
2023/01/25 06:56:07;;;;;;;28.42;16.80;;;;;;;1.81;88.05;102981.97;6096639;23;20534;-72
2023/01/25 06:58:32;;;;;;;28.85;16.73;;;;;;;1.82;87.90;102986.28;6096949;23;20006;-72
2023/01/25 07:01:19;;;;;;;28.63;16.67;;;;;;;1.79;87.80;102987.75;6096668;23;20390;-73
2023/01/25 07:03:50;;;;;;;25.88;15.38;;;;;;;1.80;88.09;102986.97;6095875;23;20086;-72
2023/01/25 07:06:16;;;;;;;23.67;14.25;;;;;;;1.82;88.14;102990.50;6097030;23;20041;-72
2023/01/25 07:08:41;;;;;;;28.48;16.17;;;;;;;1.84;88.40;102989.81;6097423;23;20450;-72
2023/01/25 07:11:12;;;;;;;25.60;14.68;;;;;;;1.84;87.80;102989.81;6096155;23;20018;-72
2023/01/25 07:13:42;;;;;;;27.00;16.52;;;;;;;1.86;88.02;102989.91;6095943;23;20210;-72
2023/01/25 07:16:14;;;;;;;29.95;16.80;;;;;;;1.84;87.73;103000.00;6096109;23;20019;-72
2023/01/25 07:18:39;;;;;;;30.52;16.58;;;;;;;1.82;88.29;103003.25;6096500;23;20014;-72
2023/01/25 07:21:11;;;;;;;29.67;17.30;;;;;;;1.78;88.38;103002.16;6095976;23;20022;-73
2023/01/25 07:23:37;;;;;;;32.08;17.58;;;;;;;1.76;88.59;103002.88;6094885;23;20029;-72
2023/01/25 07:26:04;;;;;;;28.33;15.82;;;;;;;1.75;88.34;103001.97;6094893;23;20016;-73
2023/01/25 07:28:30;;;;;;;32.40;18.10;;;;;;;1.76;88.26;102991.00;6095738;23;20014;-73
2023/01/25 07:31:02;;;;;;;31.10;16.83;;;;;;;1.78;88.48;102991.09;6093559;23;20065;-73
2023/01/25 07:33:27;;;;;;;32.90;18.63;;;;;;;1.78;88.65;102994.53;6097985;23;20014;-72
2023/01/25 07:35:53;;;;;;;29.95;16.92;;;;;;;1.71;88.46;103002.59;6096543;23;20102;-72
2023/01/25 07:38:18;;;;;;;33.83;18.27;;;;;;;1.70;88.74;102999.94;6097210;23;20029;-72
2023/01/25 07:40:50;;;;;;;30.50;18.40;;;;;;;1.69;88.82;103000.69;6097214;23;20057;-72
2023/01/25 07:43:16;;;;;;;33.22;18.45;;;;;;;1.70;88.65;103003.38;6102871;23;20433;-72
2023/01/25 07:45:44;;;;;;;34.40;18.48;;;;;;;1.69;88.85;102996.50;6101728;23;20052;-72
2023/01/25 07:48:09;;;;;;;31.73;18.15;;;;;;;1.69;88.85;102990.50;6098275;23;20097;-73
2023/01/25 07:50:35;;;;;;;32.22;18.40;;;;;;;1.67;89.31;102992.97;6096279;23;20065;-72
2023/01/25 07:53:00;;;;;;;31.90;17.48;;;;;;;1.70;89.30;102995.72;6095384;23;20028;-73
2023/01/25 07:55:26;;;;;;;29.30;17.65;;;;;;;1.68;89.07;102984.56;6095008;23;20053;-73
2023/01/25 07:57:54;;;;;;;33.65;18.23;;;;;;;1.71;89.13;102988.97;6097013;23;20016;-73
2023/01/25 08:00:20;;;;;;;33.97;18.05;;;;;;;1.73;89.13;102992.47;6097240;23;20204;-73
2023/01/25 08:02:49;;;;;;;32.85;18.15;;;;;;;1.74;89.12;102997.69;6095505;23;20162;-73
2023/01/25 08:05:14;;;;;;;32.28;17.52;;;;;;;1.75;89.27;102999.44;6094579;23;20022;-73
2023/01/25 08:07:40;;;;;;;34.03;18.10;;;;;;;1.74;88.90;103001.91;6093882;23;20021;-73
2023/01/25 08:10:06;;;;;;;29.98;16.90;;;;;;;1.76;88.88;103000.31;6093431;23;20021;-73
2023/01/25 08:12:33;;;;;;;35.28;18.95;;;;;;;1.78;88.49;102999.63;6095384;23;20097;-72
2023/01/25 08:14:59;;;;;;;28.85;17.55;;;;;;;1.74;88.18;103002.78;6090798;23;20018;-72
2023/01/25 08:17:30;;;;;;;29.45;17.65;;;;;;;1.68;88.23;102997.28;6091895;23;20022;-72
2023/01/25 08:19:57;;;;;;;30.92;17.67;;;;;;;1.68;88.21;102994.75;6090456;23;20014;-73
2023/01/25 08:22:23;;;;;;;25.73;15.75;;;;;;;1.64;88.26;102992.78;6091831;23;19998;-73
2023/01/25 08:24:48;;;;;;;30.33;16.90;;;;;;;1.63;88.28;102991.00;6092502;23;20017;-72
2023/01/25 08:27:14;;;;;;;28.92;16.23;;;;;;;1.63;88.44;102992.66;6098328;23;20050;-73
2023/01/25 08:29:39;;;;;;;28.45;16.15;;;;;;;1.63;88.58;102995.22;6099990;23;20022;-73
2023/01/25 08:32:06;;;;;;;35.88;17.92;;;;;;;1.64;88.77;102989.34;6114269;23;20449;-73
2023/01/25 08:34:32;;;;;;;32.45;16.95;;;;;;;1.64;88.98;102989.34;6105903;23;20074;-72
2023/01/25 08:36:57;;;;;;;32.38;18.10;;;;;;;1.66;88.62;102993.75;6092831;23;20006;-72
2023/01/25 08:39:23;;;;;;;34.03;17.95;;;;;;;1.68;88.61;102991.31;6042247;23;1155758;-73
2023/01/25 08:41:48;;;;;;;27.33;16.83;;;;;;;1.64;88.68;102985.13;6092678;23;20516;-73
2023/01/25 08:44:14;;;;;;;33.13;18.30;;;;;;;1.64;88.69;102980.03;6095337;23;20018;-73
2023/01/25 08:46:39;;;;;;;34.45;18.35;;;;;;;1.66;88.64;102973.34;6097174;23;20062;-73
2023/01/25 08:49:06;;;;;;;32.83;18.55;;;;;;;1.74;88.62;102974.75;6096464;23;20022;-73
2023/01/25 08:51:32;;;;;;;31.23;17.38;;;;;;;1.78;88.73;102974.13;6092816;23;20018;-72
2023/01/25 08:54:05;;;;;;;34.35;18.88;;;;;;;1.78;88.13;102973.25;6090598;23;20085;-73
2023/01/25 08:56:31;;;;;;;30.40;18.05;;;;;;;1.70;88.43;102967.69;6092939;23;20018;-72
2023/01/25 08:58:56;;;;;;;32.17;18.63;;;;;;;1.73;88.53;102977.19;6090853;23;20540;-73
2023/01/25 09:01:22;;;;;;;36.22;19.77;;;;;;;1.65;88.46;102973.28;6090667;23;20065;-73
2023/01/25 09:03:49;;;;;;;36.17;19.35;;;;;;;1.67;89.18;102967.47;6092846;23;20044;-72
2023/01/25 09:06:15;;;;;;;33.22;17.65;;;;;;;1.72;88.97;102972.84;6091302;23;20015;-73
2023/01/25 09:08:41;;;;;;;32.35;17.30;;;;;;;1.63;88.70;102975.72;6091317;23;20033;-73
2023/01/25 09:11:09;;;;;;;37.05;18.10;;;;;;;1.65;89.01;102968.19;6092034;23;20093;-73
2023/01/25 09:13:35;;;;;;;38.58;19.50;;;;;;;1.65;89.17;102969.06;6091936;23;20446;-73
2023/01/25 09:16:06;;;;;;;37.90;20.35;;;;;;;1.66;89.26;102964.81;6090705;23;20545;-73
2023/01/25 09:18:34;;;;;;;30.27;17.42;;;;;;;1.67;89.17;102964.06;6090657;23;20022;-73
2023/01/25 09:21:05;;;;;;;36.15;19.27;;;;;;;1.66;89.00;102958.06;6090445;23;20030;-73
2023/01/25 09:23:31;;;;;;;34.00;18.83;;;;;;;1.65;88.67;102952.88;6090779;23;20241;-72
2023/01/25 09:26:00;;;;;;;34.25;17.35;;;;;;;1.64;88.66;102959.66;6091130;23;20465;-72
2023/01/25 09:28:28;;;;;;;34.17;18.92;;;;;;;1.67;88.80;102956.41;6091443;23;20018;-70
2023/01/25 09:31:02;;;;;;;39.35;18.92;;;;;;;1.70;88.92;102954.03;6091746;23;20003;-72
2023/01/25 09:33:33;;;;;;;31.17;17.52;;;;;;;1.68;89.02;102956.50;6091193;23;20032;-72
2023/01/25 09:35:59;;;;;;;31.88;16.80;;;;;;;1.70;88.79;102952.38;6091379;23;20019;-71
2023/01/25 09:38:24;;;;;;;38.65;20.55;;;;;;;1.65;88.70;102947.78;6088606;23;20025;-71
2023/01/25 09:41:23;;;;;;;33.45;18.85;;;;;;;1.65;88.83;102951.22;6090904;23;20022;-72
2023/01/25 09:44:26;;;;;;;35.17;18.02;;;;;;;1.59;89.13;102947.41;6091144;23;20469;-72
2023/01/25 09:47:03;;;;;;;36.08;18.80;;;;;;;1.66;89.16;102940.22;6091543;23;20014;-72
2023/01/25 09:49:50;;;;;;;34.03;18.08;;;;;;;1.70;89.40;102951.50;6092361;23;20017;-72
2023/01/25 09:52:53;;;;;;;34.95;19.10;;;;;;;1.76;89.00;102947.66;6093309;23;20457;-72
2023/01/25 09:55:23;;;;;;;30.38;16.60;;;;;;;1.74;88.93;102935.63;6091651;23;20014;-72
2023/01/25 09:57:52;;;;;;;35.35;18.52;;;;;;;1.73;88.62;102933.84;6092676;23;20089;-72
2023/01/25 10:00:18;;;;;;;32.90;18.08;;;;;;;1.76;88.75;102931.47;6091108;23;20022;-72
2023/01/25 10:02:53;;;;;;;31.85;16.92;;;;;;;1.75;88.01;102929.72;6090522;23;20018;-72
2023/01/25 10:05:22;;;;;;;33.47;17.45;;;;;;;1.70;88.55;102926.88;6091451;23;20018;-72
2023/01/25 10:08:14;;;;;;;34.30;18.13;;;;;;;1.68;88.47;102922.50;6089640;23;20090;-73
2023/01/25 10:10:42;;;;;;;34.00;17.90;;;;;;;1.75;88.85;102917.84;6090451;23;20021;-72
2023/01/25 10:13:13;;;;;;;38.55;18.83;;;;;;;1.76;88.81;102908.53;6089597;23;20093;-72
2023/01/25 10:15:52;;;;;;;34.22;18.45;;;;;;;1.76;88.65;102905.97;6089982;23;20022;-72
2023/01/25 10:18:44;;;;;;;39.13;18.67;;;;;;;1.74;88.39;102910.13;6090123;23;20018;-72
2023/01/25 10:21:34;;;;;;;34.03;19.40;;;;;;;1.71;88.43;102909.94;6089209;23;20025;-72
2023/01/25 10:24:22;;;;;;;31.42;17.35;;;;;;;1.72;88.66;102912.56;6090719;23;20398;-72
2023/01/25 10:26:55;;;;;;;37.13;18.88;;;;;;;1.72;88.72;102906.56;6090757;23;20065;-72
2023/01/25 10:29:25;;;;;;;39.85;20.48;;;;;;;1.74;88.84;102902.47;6088971;23;20014;-72
2023/01/25 10:31:53;;;;;;;38.75;19.48;;;;;;;1.74;89.08;102894.81;6090527;23;20053;-72
2023/01/25 10:34:31;;;;;;;40.60;19.90;;;;;;;1.82;89.12;102888.50;6089392;23;20459;-71
2023/01/25 10:37:03;;;;;;;36.95;18.85;;;;;;;1.81;89.04;102886.75;6090825;23;20010;-72
2023/01/25 10:39:36;;;;;;;37.90;19.98;;;;;;;1.80;88.83;102877.34;6090338;23;20022;-72
2023/01/25 10:42:10;;;;;;;37.38;19.60;;;;;;;1.84;89.13;102876.72;6090076;23;20018;-72
2023/01/25 10:44:36;;;;;;;39.60;20.33;;;;;;;1.80;88.61;102874.81;6089266;23;20015;-73
2023/01/25 10:47:29;;;;;;;38.13;19.35;;;;;;;1.81;88.86;102874.00;6089919;23;20102;-71
2023/01/25 10:49:56;;;;;;;37.75;20.05;;;;;;;1.88;89.06;102870.16;6081671;23;20014;-71
2023/01/25 10:52:30;;;;;;;38.13;19.48;;;;;;;1.97;89.26;102857.97;6087828;23;20446;-72
2023/01/25 10:55:16;;;;;;;40.25;20.17;;;;;;;2.01;88.69;102850.59;6088774;23;20007;-73
2023/01/25 10:57:43;;;;;;;42.83;20.42;;;;;;;2.00;87.88;102851.38;6089304;23;20034;-72
2023/01/25 11:00:24;;;;;;;34.58;18.27;;;;;;;1.97;88.30;102847.75;6091714;23;20022;-72
2023/01/25 11:02:50;;;;;;;36.03;19.02;;;;;;;1.95;88.21;102846.78;6091006;23;20073;-72
2023/01/25 11:05:28;;;;;;;37.60;19.30;;;;;;;1.91;88.28;102849.94;6091236;23;20442;-73
2023/01/25 11:07:54;;;;;;;37.10;20.13;;;;;;;1.89;88.35;102851.53;6090671;23;20011;-71
2023/01/25 11:10:30;;;;;;;34.28;17.90;;;;;;;1.88;88.45;102845.53;6091836;23;20007;-73
2023/01/25 11:13:14;;;;;;;37.78;19.77;;;;;;;1.84;88.58;102846.13;6093152;23;20017;-73
2023/01/25 11:15:43;;;;;;;41.10;19.05;;;;;;;1.81;88.35;102838.31;6091143;23;20057;-72
2023/01/25 11:18:18;;;;;;;34.15;18.17;;;;;;;1.75;88.28;102840.47;6089570;23;20022;-72
2023/01/25 11:20:44;;;;;;;42.13;20.08;;;;;;;1.77;88.56;102839.81;6090659;23;20366;-72
2023/01/25 11:23:36;;;;;;;38.75;20.00;;;;;;;1.80;88.63;102839.13;6091722;23;20022;-72
2023/01/25 11:26:14;;;;;;;39.33;18.45;;;;;;;1.77;88.99;102834.72;6084618;23;20097;-71